Bolsover, United Kingdom
Current Conditions -  °F | °C
As of 7:20 PM on Friday 28 Nov 2014 (Local Time) from EGCN Reporting Station
Broken Clouds Broken Clouds  
Wind Chill: 50°   Ceiling: 1100
Heat Index: 50°   Visibility: 4mi
Dew Point: 48°   Wind: 6mph
Humidity: 94%   Direction: 60°ENE
Pressure: 29.83"   Gusts: NA
Location:  53.23°N, 1.29°W
Report Text: EGCN 281920Z 06005KT 030V110 6000 FEW008 BKN011 10/09 Q1010
Loading
Personal Weather Stations






























Interactive Weather Map New forecast layout! Learn more

10-Day Weather Forecast

Advertisements
Track Severe Weather on mobile